Time;durP1;ratioP1;P1;durP2;ratioP2;P2;SDS_P1;SDS_P2;PMS_P1;PMS_P2;Temp;Humidity;BMP_temperature;BMP_pressure;BME280_temperature;BME280_humidity;BME280_pressure;Samples;Min_cycle;Max_cycle;Signal;HPM_P1;HPM_P2
2022/11/28 00:00:56;;;;;;;17.80;13.02;;;6.50;99.90;;;;;;5114636;28;20039;-63
2022/11/28 00:03:23;;;;;;;19.77;12.98;;;6.50;99.90;;;;;;5112737;28;20570;-63
2022/11/28 00:05:49;;;;;;;17.55;12.27;;;6.50;99.90;;;;;;5115596;28;20043;-63
2022/11/28 00:08:15;;;;;;;16.95;11.65;;;6.50;99.90;;;;;;5113085;28;20043;-62
2022/11/28 00:10:40;;;;;;;16.73;11.52;;;6.50;99.90;;;;;;5114585;28;20527;-63
2022/11/28 00:13:06;;;;;;;15.23;11.50;;;6.50;99.90;;;;;;5113423;28;20392;-63
2022/11/28 00:15:32;;;;;;;17.83;12.48;;;6.50;99.90;;;;;;5114003;28;20077;-63
2022/11/28 00:17:58;;;;;;;17.52;12.77;;;6.50;99.90;;;;;;5113145;28;20043;-63
2022/11/28 00:20:23;;;;;;;19.70;13.68;;;6.50;99.90;;;;;;5113289;28;20043;-63
2022/11/28 00:22:49;;;;;;;17.30;12.13;;;6.50;99.90;;;;;;5115126;28;20067;-63
2022/11/28 00:25:15;;;;;;;18.83;13.85;;;6.50;99.90;;;;;;5112313;28;20484;-63
2022/11/28 00:27:40;;;;;;;18.25;12.05;;;6.50;99.90;;;;;;5114110;28;20488;-63
2022/11/28 00:30:07;;;;;;;18.52;12.40;;;6.50;99.90;;;;;;5114591;28;20046;-63
2022/11/28 00:32:32;;;;;;;17.85;12.85;;;6.50;99.90;;;;;;5095701;28;20036;-63
2022/11/28 00:34:58;;;;;;;17.45;12.80;;;6.50;99.90;;;;;;5113834;28;20055;-63
2022/11/28 00:37:23;;;;;;;19.02;12.57;;;6.50;99.90;;;;;;5114165;28;20510;-63
2022/11/28 00:39:49;;;;;;;18.55;12.35;;;6.50;99.90;;;;;;5113023;28;20162;-63
2022/11/28 00:42:19;;;;;;;16.35;11.60;;;6.50;99.90;;;;;;5112870;28;20610;-63
2022/11/28 00:44:45;;;;;;;16.35;11.85;;;6.50;99.90;;;;;;5114708;28;20054;-63
2022/11/28 00:47:10;;;;;;;16.55;11.27;;;6.50;99.90;;;;;;5111968;28;20032;-63
2022/11/28 00:49:36;;;;;;;18.75;13.27;;;6.50;99.90;;;;;;5113515;28;20040;-63
2022/11/28 00:52:01;;;;;;;17.10;11.75;;;6.50;99.90;;;;;;5113232;28;20039;-63
2022/11/28 00:54:27;;;;;;;17.92;11.98;;;6.50;99.90;;;;;;5112035;28;20042;-63
2022/11/28 00:56:53;;;;;;;16.77;13.25;;;6.50;99.90;;;;;;5113253;28;20096;-63
2022/11/28 00:59:18;;;;;;;15.15;11.77;;;6.50;99.90;;;;;;5111985;28;20445;-63
2022/11/28 01:01:44;;;;;;;17.75;12.48;;;6.50;99.90;;;;;;5114333;28;20047;-63
2022/11/28 01:04:13;;;;;;;15.55;11.40;;;6.50;99.90;;;;;;5095369;28;20039;-63
2022/11/28 01:06:42;;;;;;;15.55;11.85;;;6.50;99.90;;;;;;5112375;28;20425;-63
2022/11/28 01:09:11;;;;;;;18.88;12.98;;;6.40;99.90;;;;;;5112287;28;20044;-63
2022/11/28 01:11:38;;;;;;;19.00;11.93;;;6.40;99.90;;;;;;5095929;28;20043;-63
2022/11/28 01:14:04;;;;;;;20.98;13.52;;;6.40;99.90;;;;;;5112792;28;20043;-63
2022/11/28 01:16:30;;;;;;;23.20;13.32;;;6.40;99.90;;;;;;5113947;28;20062;-63
2022/11/28 01:18:56;;;;;;;15.43;12.38;;;6.40;99.90;;;;;;5112784;28;20036;-63
2022/11/28 01:21:22;;;;;;;18.70;13.02;;;6.40;99.90;;;;;;5110515;28;20063;-63
2022/11/28 01:23:48;;;;;;;19.52;14.00;;;6.40;99.90;;;;;;5112566;28;20400;-63
2022/11/28 01:26:20;;;;;;;22.77;14.07;;;6.40;99.90;;;;;;5112492;28;20047;-63
2022/11/28 01:28:47;;;;;;;21.55;14.43;;;6.40;99.90;;;;;;5094693;28;20084;-63
2022/11/28 01:31:18;;;;;;;20.77;13.35;;;6.40;99.90;;;;;;5113416;28;20035;-63
2022/11/28 01:33:44;;;;;;;18.10;12.13;;;6.40;99.90;;;;;;5112307;28;20118;-63
2022/11/28 01:36:11;;;;;;;18.38;12.68;;;6.40;99.90;;;;;;5110985;28;20122;-63
2022/11/28 01:38:37;;;;;;;18.15;13.68;;;6.40;99.90;;;;;;5112743;28;20040;-63
2022/11/28 01:41:04;;;;;;;22.73;15.40;;;6.40;99.90;;;;;;5113529;28;20577;-63
2022/11/28 01:43:30;;;;;;;23.27;14.57;;;6.40;99.90;;;;;;5112746;28;20039;-63
2022/11/28 01:45:56;;;;;;;17.67;12.07;;;6.40;99.90;;;;;;5112470;28;20036;-63
2022/11/28 01:48:25;;;;;;;18.52;13.93;;;6.40;99.90;;;;;;5111398;28;20434;-63
2022/11/28 01:50:55;;;;;;;20.85;13.52;;;6.40;99.90;;;;;;5094627;28;20480;-63
2022/11/28 01:53:22;;;;;;;20.85;13.38;;;6.40;99.90;;;;;;5113072;28;20035;-63
2022/11/28 01:55:55;;;;;;;20.25;13.45;;;6.40;99.90;;;;;;5111629;28;20039;-63
2022/11/28 01:58:21;;;;;;;20.33;14.32;;;6.40;99.90;;;;;;5111498;28;20061;-64
2022/11/28 02:00:48;;;;;;;21.50;13.98;;;6.40;99.90;;;;;;5112252;28;20099;-64
2022/11/28 02:03:19;;;;;;;18.17;12.45;;;6.40;99.90;;;;;;5110691;28;20462;-64
2022/11/28 02:05:47;;;;;;;19.42;12.93;;;6.40;99.90;;;;;;5112230;28;20388;-64
2022/11/28 02:08:13;;;;;;;19.85;13.75;;;6.40;99.90;;;;;;5111258;28;20088;-64
2022/11/28 02:11:09;;;;;;;20.33;13.93;;;6.50;99.90;;;;;;5112474;28;20039;-64
2022/11/28 02:13:39;;;;;;;20.38;14.15;;;6.50;99.90;;;;;;5112041;28;20036;-64
2022/11/28 02:16:47;;;;;;;20.23;14.68;;;6.50;99.90;;;;;;5111079;28;20460;-64
2022/11/28 02:19:25;;;;;;;20.98;14.65;;;6.50;99.90;;;;;;5112666;28;20079;-64
2022/11/28 02:21:59;;;;;;;18.70;13.35;;;6.50;99.90;;;;;;5113127;28;20035;-64
2022/11/28 02:24:44;;;;;;;22.05;13.88;;;6.50;99.90;;;;;;5093246;28;20080;-64
2022/11/28 02:27:46;;;;;;;19.45;15.10;;;6.50;99.90;;;;;;5111271;28;20043;-64
2022/11/28 02:31:00;;;;;;;21.80;14.80;;;6.50;99.90;;;;;;5110901;28;20492;-64
2022/11/28 02:33:32;;;;;;;20.60;15.23;;;6.50;99.90;;;;;;5034759;28;20044;-64
2022/11/28 02:36:16;;;;;;;18.95;13.27;;;6.50;99.90;;;;;;5094524;28;20046;-64
2022/11/28 02:39:09;;;;;;;23.13;15.18;;;6.50;99.90;;;;;;5110741;28;20036;-64
2022/11/28 02:41:47;;;;;;;19.33;14.98;;;6.50;99.90;;;;;;5111576;28;20036;-64
2022/11/28 02:44:18;;;;;;;19.25;14.63;;;6.50;99.90;;;;;;5110729;28;20048;-64
2022/11/28 02:47:05;;;;;;;20.15;14.15;;;6.50;99.90;;;;;;5110531;28;20564;-64
2022/11/28 02:49:50;;;;;;;19.88;15.30;;;6.50;99.90;;;;;;5111500;28;20040;-64
2022/11/28 02:52:20;;;;;;;22.67;16.38;;;6.50;99.90;;;;;;5110046;28;20035;-64
2022/11/28 02:54:49;;;;;;;22.17;16.27;;;6.60;99.90;;;;;;5111791;28;20043;-64
2022/11/28 02:57:15;;;;;;;18.48;14.35;;;6.60;99.90;;;;;;5112256;28;20036;-64
2022/11/28 02:59:41;;;;;;;21.20;14.48;;;6.60;99.90;;;;;;5110530;28;20044;-64
2022/11/28 03:02:18;;;;;;;24.50;16.35;;;6.60;99.90;;;;;;5111772;28;20046;-64
2022/11/28 03:05:09;;;;;;;23.85;17.25;;;6.60;99.90;;;;;;5111179;28;20040;-64
2022/11/28 03:07:44;;;;;;;22.67;16.83;;;6.60;99.90;;;;;;5093541;28;20035;-64
2022/11/28 03:10:31;;;;;;;22.17;16.08;;;6.60;99.90;;;;;;5110713;28;20046;-63
2022/11/28 03:13:15;;;;;;;20.10;15.35;;;6.70;99.90;;;;;;5111614;28;20032;-64
2022/11/28 03:16:16;;;;;;;19.75;15.50;;;6.60;99.90;;;;;;5111060;28;20504;-63
2022/11/28 03:18:55;;;;;;;23.25;16.85;;;6.70;99.90;;;;;;5111292;28;20102;-64
2022/11/28 03:21:41;;;;;;;22.02;16.48;;;6.70;99.90;;;;;;5092849;28;20036;-64
2022/11/28 03:24:27;;;;;;;22.50;17.05;;;6.70;99.90;;;;;;5112026;28;20100;-64
2022/11/28 03:27:37;;;;;;;21.67;16.27;;;6.70;99.90;;;;;;5111575;28;20079;-64
2022/11/28 03:30:28;;;;;;;22.00;14.73;;;6.70;99.90;;;;;;5111128;28;20043;-64
2022/11/28 03:32:56;;;;;;;21.90;16.55;;;6.80;99.90;;;;;;5111259;28;20396;-63
2022/11/28 03:35:28;;;;;;;24.15;15.98;;;6.80;99.90;;;;;;5110815;28;20047;-63
2022/11/28 03:37:59;;;;;;;24.23;18.45;;;6.80;99.90;;;;;;5110896;28;20089;-63
2022/11/28 03:40:31;;;;;;;25.23;19.20;;;6.80;99.90;;;;;;5111892;28;20040;-64
2022/11/28 03:43:02;;;;;;;23.60;16.73;;;6.80;99.90;;;;;;5111603;28;20036;-64
2022/11/28 03:45:39;;;;;;;20.27;15.70;;;6.80;99.90;;;;;;5113870;28;20116;-63
2022/11/28 03:48:14;;;;;;;22.65;17.13;;;6.80;99.90;;;;;;5114073;28;20088;-63
2022/11/28 03:50:49;;;;;;;;;;;6.80;99.90;;;;;;5114969;28;20047;-63
2022/11/28 03:53:26;;;;;;;24.30;17.25;;;6.80;99.90;;;;;;5114279;28;20349;-63
2022/11/28 03:56:03;;;;;;;22.13;15.88;;;6.90;99.90;;;;;;5113625;28;20124;-64
2022/11/28 03:59:03;;;;;;;23.17;17.55;;;6.80;99.90;;;;;;5115218;28;20042;-63
2022/11/28 04:01:34;;;;;;;23.88;17.55;;;6.80;99.90;;;;;;5089077;28;20123;-63
2022/11/28 04:04:21;;;;;;;21.88;16.35;;;6.90;99.90;;;;;;5113602;28;20522;-63
2022/11/28 04:06:53;;;;;;;24.42;17.60;;;6.90;99.90;;;;;;5115443;27;20046;-63
2022/11/28 04:09:43;;;;;;;23.38;18.08;;;6.90;99.90;;;;;;5112766;28;20066;-63
2022/11/28 04:12:33;;;;;;;22.15;16.13;;;6.90;99.90;;;;;;5085628;28;20082;-63
2022/11/28 04:15:13;;;;;;;25.00;17.33;;;6.90;99.90;;;;;;5114132;28;20043;-63
2022/11/28 04:17:51;;;;;;;23.88;16.15;;;6.90;99.90;;;;;;5095839;28;20094;-63
2022/11/28 04:20:25;;;;;;;21.88;15.70;;;6.90;99.90;;;;;;5113326;28;20040;-63
2022/11/28 04:22:57;;;;;;;25.17;17.20;;;6.90;99.90;;;;;;5115251;28;20438;-63
2022/11/28 04:25:24;;;;;;;24.48;16.38;;;7.00;99.90;;;;;;5112531;28;20523;-63
2022/11/28 04:27:56;;;;;;;22.08;16.65;;;7.00;99.90;;;;;;5113530;28;20046;-64
2022/11/28 04:30:22;;;;;;;21.63;14.95;;;7.00;99.90;;;;;;5113960;27;20035;-64
2022/11/28 04:32:51;;;;;;;23.17;16.83;;;7.00;99.90;;;;;;5113761;28;20441;-63
2022/11/28 04:35:29;;;;;;;21.63;17.13;;;7.00;99.90;;;;;;5114345;27;20058;-64
2022/11/28 04:37:57;;;;;;;24.40;16.17;;;7.10;99.90;;;;;;5114181;27;20050;-63
2022/11/28 04:40:25;;;;;;;20.30;15.30;;;7.10;99.90;;;;;;5114199;28;20120;-64
2022/11/28 04:43:00;;;;;;;23.50;16.70;;;7.10;99.90;;;;;;5113508;28;20047;-63
2022/11/28 04:45:42;;;;;;;21.10;14.38;;;7.10;99.90;;;;;;5112013;28;20055;-63
2022/11/28 04:48:08;;;;;;;22.05;14.77;;;7.10;99.90;;;;;;5114401;28;20043;-63
2022/11/28 04:51:01;;;;;;;19.92;14.63;;;7.10;99.90;;;;;;5114701;28;20027;-63
2022/11/28 04:53:35;;;;;;;24.35;16.30;;;7.10;99.90;;;;;;5094415;28;20395;-63
2022/11/28 04:56:06;;;;;;;22.40;15.13;;;7.10;99.90;;;;;;5113360;28;20040;-63
2022/11/28 04:58:40;;;;;;;22.33;15.60;;;7.20;99.90;;;;;;5112488;28;20032;-63
2022/11/28 05:01:13;;;;;;;23.38;15.50;;;7.20;99.90;;;;;;5112616;28;20093;-63
2022/11/28 05:03:39;;;;;;;22.20;16.05;;;7.20;99.90;;;;;;5113089;28;20573;-63
2022/11/28 05:06:06;;;;;;;24.25;15.10;;;7.20;99.90;;;;;;5111695;28;20027;-63
2022/11/28 05:08:32;;;;;;;20.70;14.95;;;7.20;99.90;;;;;;5113106;28;20080;-63
2022/11/28 05:10:57;;;;;;;20.98;14.60;;;7.20;99.90;;;;;;5112944;28;20426;-63
2022/11/28 05:13:23;;;;;;;18.27;14.40;;;7.20;99.90;;;;;;5111724;28;20043;-63
2022/11/28 05:15:49;;;;;;;21.80;14.38;;;7.30;99.90;;;;;;5113955;28;20102;-64
2022/11/28 05:18:14;;;;;;;20.55;14.48;;;7.20;99.90;;;;;;5112366;28;20112;-63
2022/11/28 05:20:40;;;;;;;21.02;14.05;;;7.20;99.90;;;;;;5113317;28;20039;-63
2022/11/28 05:23:06;;;;;;;20.67;14.30;;;7.30;99.90;;;;;;5112130;28;20043;-63
2022/11/28 05:25:32;;;;;;;17.80;13.98;;;7.20;99.90;;;;;;5112617;28;20031;-63
2022/11/28 05:27:57;;;;;;;18.05;12.00;;;7.30;99.90;;;;;;5111841;28;20483;-63
2022/11/28 05:30:23;;;;;;;21.88;14.88;;;7.30;99.90;;;;;;5113159;28;20046;-63
2022/11/28 05:32:49;;;;;;;17.50;12.35;;;7.30;99.90;;;;;;5112702;28;20039;-63
2022/11/28 05:35:14;;;;;;;19.67;13.63;;;7.40;99.90;;;;;;5111176;28;20484;-63
2022/11/28 05:37:40;;;;;;;17.73;13.23;;;7.40;99.90;;;;;;5112483;28;20044;-63
2022/11/28 05:40:06;;;;;;;18.77;13.95;;;7.40;99.90;;;;;;5111747;28;20036;-63
2022/11/28 05:42:33;;;;;;;17.50;12.95;;;7.40;99.90;;;;;;5111659;28;20054;-63
2022/11/28 05:44:59;;;;;;;16.25;12.50;;;7.40;99.90;;;;;;5113452;28;20040;-63
2022/11/28 05:47:25;;;;;;;16.15;11.82;;;7.40;99.90;;;;;;5113150;28;20046;-63
2022/11/28 05:49:51;;;;;;;19.02;13.10;;;7.50;99.90;;;;;;5111648;28;20036;-63
2022/11/28 05:52:16;;;;;;;16.63;11.60;;;7.40;99.90;;;;;;5111786;28;20472;-63
2022/11/28 05:54:42;;;;;;;17.33;13.45;;;7.40;99.90;;;;;;5112547;28;20074;-63
2022/11/28 05:57:08;;;;;;;21.77;14.30;;;7.50;99.90;;;;;;5111583;28;20567;-63
2022/11/28 05:59:33;;;;;;;17.83;12.60;;;7.50;99.90;;;;;;5113211;28;20036;-63
2022/11/28 06:01:59;;;;;;;14.32;11.68;;;7.50;99.90;;;;;;5094548;28;20032;-63
2022/11/28 06:04:25;;;;;;;14.07;10.50;;;7.40;99.90;;;;;;5112808;28;20039;-63
2022/11/28 06:06:51;;;;;;;17.17;12.00;;;7.40;99.90;;;;;;5111488;28;20034;-63
2022/11/28 06:09:16;;;;;;;18.23;13.27;;;7.50;99.90;;;;;;5110316;28;20043;-63
2022/11/28 06:11:42;;;;;;;22.80;15.07;;;7.50;99.90;;;;;;5111821;28;20043;-63
2022/11/28 06:14:09;;;;;;;16.98;12.45;;;7.50;99.90;;;;;;5111397;28;20043;-63
2022/11/28 06:16:35;;;;;;;18.13;13.55;;;7.50;99.90;;;;;;5111034;28;20075;-63
2022/11/28 06:19:03;;;;;;;18.80;13.52;;;7.50;99.90;;;;;;5111884;28;20043;-63
2022/11/28 06:21:30;;;;;;;18.30;13.05;;;7.50;99.90;;;;;;5113149;28;20160;-63
2022/11/28 06:23:57;;;;;;;18.75;14.15;;;7.50;99.90;;;;;;5110801;28;20124;-63
2022/11/28 06:26:24;;;;;;;18.48;12.65;;;7.50;99.90;;;;;;5094161;28;20048;-63
2022/11/28 06:28:50;;;;;;;14.85;11.07;;;7.50;99.90;;;;;;5111793;28;20031;-63
2022/11/28 06:31:22;;;;;;;19.00;13.82;;;7.50;99.90;;;;;;5093549;28;20032;-63
2022/11/28 06:33:48;;;;;;;20.42;13.82;;;7.50;99.90;;;;;;5111740;28;20476;-63
2022/11/28 06:36:15;;;;;;;18.10;12.23;;;7.50;99.90;;;;;;5110891;28;20040;-63
2022/11/28 06:38:41;;;;;;;15.73;10.98;;;7.50;99.90;;;;;;5111905;28;20128;-63
2022/11/28 06:41:10;;;;;;;18.40;12.20;;;7.50;99.90;;;;;;5110980;28;20114;-63
2022/11/28 06:43:36;;;;;;;15.70;11.23;;;7.60;99.90;;;;;;5112568;28;20039;-63
2022/11/28 06:46:03;;;;;;;12.93;10.38;;;7.60;99.90;;;;;;5112099;28;20035;-63
2022/11/28 06:48:28;;;;;;;15.93;11.48;;;7.60;99.90;;;;;;5111424;28;20051;-63
2022/11/28 06:51:02;;;;;;;13.65;10.57;;;7.60;99.90;;;;;;5111429;28;20035;-63
2022/11/28 06:53:28;;;;;;;15.25;10.65;;;7.60;99.90;;;;;;5110771;28;20088;-63
2022/11/28 06:55:54;;;;;;;13.88;9.30;;;7.60;99.90;;;;;;5110313;28;20036;-63
2022/11/28 06:58:19;;;;;;;13.88;9.90;;;7.60;99.90;;;;;;5109900;28;20036;-63
2022/11/28 07:00:45;;;;;;;15.07;10.82;;;7.60;99.90;;;;;;5094305;28;20051;-63
2022/11/28 07:03:12;;;;;;;14.98;11.10;;;7.60;99.90;;;;;;5111907;28;20042;-63
2022/11/28 07:05:38;;;;;;;15.35;11.02;;;7.70;99.90;;;;;;5111792;28;20044;-65
2022/11/28 07:08:04;;;;;;;12.45;9.75;;;7.60;99.90;;;;;;5112007;28;20036;-66
2022/11/28 07:10:35;;;;;;;16.27;10.27;;;7.70;99.90;;;;;;5111076;28;20118;-63
2022/11/28 07:13:01;;;;;;;14.90;10.23;;;7.70;99.90;;;;;;5113296;28;20040;-63
2022/11/28 07:15:27;;;;;;;12.77;9.65;;;7.70;99.90;;;;;;5093705;28;20373;-62
2022/11/28 07:17:53;;;;;;;12.32;9.35;;;7.70;99.90;;;;;;5093959;28;20461;-63
2022/11/28 07:20:20;;;;;;;17.25;11.73;;;7.70;99.90;;;;;;5094490;28;20042;-63
2022/11/28 07:22:47;;;;;;;15.30;10.35;;;7.70;99.90;;;;;;5113653;28;20388;-64
2022/11/28 07:25:14;;;;;;;18.85;12.23;;;7.70;99.90;;;;;;5095136;28;20484;-63
2022/11/28 07:27:41;;;;;;;14.50;10.73;;;7.70;99.90;;;;;;5111629;28;20400;-63
2022/11/28 07:30:08;;;;;;;14.63;10.63;;;7.80;99.90;;;;;;5094442;28;20092;-64
2022/11/28 07:33:01;;;;;;;13.52;9.75;;;7.70;99.90;;;;;;5110434;28;20039;-63
2022/11/28 07:35:27;;;;;;;15.38;10.95;;;7.80;99.90;;;;;;5110417;28;20130;-64
2022/11/28 07:37:53;;;;;;;17.05;10.07;;;7.70;99.90;;;;;;5112491;28;20490;-63
2022/11/28 07:40:19;;;;;;;15.48;10.55;;;7.70;99.90;;;;;;5112077;28;20076;-64
2022/11/28 07:42:47;;;;;;;15.27;9.35;;;7.70;99.90;;;;;;5112228;28;20050;-64
2022/11/28 07:45:13;;;;;;;14.80;10.63;;;7.70;99.90;;;;;;5093610;28;20539;-64
2022/11/28 07:47:38;;;;;;;13.75;9.82;;;7.80;99.90;;;;;;5110968;28;20079;-63
2022/11/28 07:50:05;;;;;;;15.55;10.05;;;7.80;99.90;;;;;;5094375;28;20039;-63
2022/11/28 07:52:30;;;;;;;15.32;10.30;;;7.80;99.90;;;;;;5112477;28;20484;-63
2022/11/28 07:54:56;;;;;;;16.83;11.20;;;7.80;99.90;;;;;;5112132;27;20043;-63
2022/11/28 07:57:21;;;;;;;14.82;9.30;;;7.80;99.90;;;;;;5110925;28;20066;-63
2022/11/28 07:59:47;;;;;;;13.07;9.13;;;7.80;99.90;;;;;;5113393;28;20032;-64
2022/11/28 08:02:13;;;;;;;13.93;8.95;;;7.80;99.90;;;;;;5112392;28;20043;-63
2022/11/28 08:04:39;;;;;;;15.13;10.23;;;7.80;99.90;;;;;;5112896;28;20143;-63
2022/11/28 08:07:04;;;;;;;17.05;10.52;;;7.80;99.90;;;;;;5094218;28;20092;-64
2022/11/28 08:09:30;;;;;;;16.25;10.68;;;7.90;99.90;;;;;;5112344;28;20036;-64
2022/11/28 08:11:56;;;;;;;13.68;9.43;;;7.90;99.90;;;;;;5113348;28;20487;-64
2022/11/28 08:14:22;;;;;;;13.65;8.98;;;7.80;99.90;;;;;;5111144;28;20050;-64
2022/11/28 08:16:48;;;;;;;14.93;10.73;;;7.90;99.90;;;;;;5108963;27;20054;-64
2022/11/28 08:19:17;;;;;;;14.48;9.35;;;7.90;99.90;;;;;;5111094;28;20392;-63
2022/11/28 08:21:43;;;;;;;12.82;9.07;;;7.90;99.90;;;;;;5111044;28;20118;-64
2022/11/28 08:24:10;;;;;;;15.40;9.30;;;7.90;99.90;;;;;;5109899;28;20181;-63
2022/11/28 08:26:36;;;;;;;16.30;10.90;;;7.90;99.90;;;;;;5093897;28;20039;-64
2022/11/28 08:29:02;;;;;;;19.58;12.02;;;7.90;99.90;;;;;;5110602;28;20614;-64
2022/11/28 08:31:36;;;;;;;17.63;11.18;;;7.90;99.90;;;;;;5108234;28;20114;-64
2022/11/28 08:34:04;;;;;;;14.68;9.38;;;7.90;99.90;;;;;;5110208;28;20040;-64
2022/11/28 08:36:30;;;;;;;12.90;9.18;;;7.90;99.90;;;;;;5111040;27;20827;-64
2022/11/28 08:38:58;;;;;;;16.15;10.63;;;7.90;99.90;;;;;;5105068;27;20067;-64
2022/11/28 08:41:24;;;;;;;13.90;9.77;;;7.90;99.90;;;;;;5107947;28;20092;-64
2022/11/28 08:43:50;;;;;;;14.05;8.65;;;7.90;99.90;;;;;;5100019;28;20044;-64
2022/11/28 08:46:19;;;;;;;15.07;9.93;;;7.90;99.90;;;;;;5108994;28;20039;-64
2022/11/28 08:48:46;;;;;;;13.02;8.27;;;8.00;99.90;;;;;;5111105;28;20039;-64
2022/11/28 08:51:14;;;;;;;15.35;9.00;;;8.00;99.90;;;;;;5091720;28;20038;-64
2022/11/28 08:53:41;;;;;;;12.77;8.88;;;8.00;99.90;;;;;;5111320;28;20476;-64
2022/11/28 08:56:08;;;;;;;14.82;8.43;;;8.00;99.90;;;;;;5092208;28;20047;-64
2022/11/28 08:58:34;;;;;;;15.10;9.38;;;8.00;99.90;;;;;;5088276;28;20070;-64
2022/11/28 09:01:00;;;;;;;14.35;10.02;;;8.00;99.90;;;;;;5111188;28;20100;-64
2022/11/28 09:03:25;;;;;;;17.45;10.77;;;8.00;99.90;;;;;;5110188;28;20046;-64
2022/11/28 09:05:52;;;;;;;16.10;11.20;;;8.00;99.90;;;;;;5109413;28;20559;-64
2022/11/28 09:08:19;;;;;;;16.77;11.07;;;8.00;99.90;;;;;;5100425;28;20028;-64
2022/11/28 09:10:46;;;;;;;18.60;11.73;;;8.10;99.90;;;;;;5099737;28;20498;-64
2022/11/28 09:13:13;;;;;;;20.80;12.75;;;8.10;99.90;;;;;;5109905;28;20130;-64
2022/11/28 09:15:41;;;;;;;24.10;12.63;;;8.10;99.90;;;;;;5092922;28;20052;-64
2022/11/28 09:18:07;;;;;;;20.52;12.90;;;8.10;99.90;;;;;;5085603;28;20052;-64
2022/11/28 09:20:34;;;;;;;21.88;14.23;;;8.10;99.90;;;;;;5095930;28;20047;-64
2022/11/28 09:23:00;;;;;;;24.73;13.88;;;8.20;99.90;;;;;;5104273;28;20043;-64
2022/11/28 09:25:25;;;;;;;26.40;15.70;;;8.20;99.90;;;;;;5086757;28;20047;-64
2022/11/28 09:27:51;;;;;;;25.60;15.70;;;8.20;99.90;;;;;;5110013;28;20035;-63
2022/11/28 09:30:21;;;;;;;32.83;17.15;;;8.20;99.90;;;;;;5091711;28;20575;-66
2022/11/28 09:32:50;;;;;;;28.65;17.92;;;8.20;99.90;;;;;;5106841;28;20047;-64
2022/11/28 09:35:16;;;;;;;31.95;17.67;;;8.30;99.90;;;;;;5091815;28;20040;-63
2022/11/28 09:37:42;;;;;;;30.45;18.27;;;8.30;99.90;;;;;;5109920;28;20046;-64
2022/11/28 09:40:17;;;;;;;28.85;17.02;;;8.30;99.90;;;;;;5108405;28;20480;-64
2022/11/28 09:42:44;;;;;;;29.92;17.77;;;8.30;99.90;;;;;;5109901;28;20755;-63
2022/11/28 09:45:18;;;;;;;32.58;19.67;;;8.30;99.90;;;;;;5107378;28;20126;-64
2022/11/28 09:47:53;;;;;;;30.45;18.15;;;8.40;99.90;;;;;;5109598;28;20373;-63
2022/11/28 09:50:40;;;;;;;28.70;18.02;;;8.40;99.90;;;;;;5111790;28;20489;-63
2022/11/28 09:53:29;;;;;;;31.40;17.85;;;8.40;99.90;;;;;;5111030;28;20517;-63
2022/11/28 09:55:54;;;;;;;29.08;18.40;;;8.40;99.90;;;;;;5112880;27;20039;-64
2022/11/28 09:58:44;;;;;;;41.63;23.50;;;8.50;99.90;;;;;;5112668;28;20169;-64
2022/11/28 10:01:24;;;;;;;31.60;19.63;;;8.50;99.90;;;;;;5110174;28;20048;-64
2022/11/28 10:03:58;;;;;;;33.42;20.55;;;8.50;99.90;;;;;;5112255;28;20043;-63
2022/11/28 10:06:59;;;;;;;34.15;19.83;;;8.50;99.90;;;;;;5111467;28;20099;-63
2022/11/28 10:09:58;;;;;;;35.70;21.75;;;8.50;99.90;;;;;;5069155;28;20048;-63
2022/11/28 10:12:36;;;;;;;37.75;22.05;;;8.50;99.90;;;;;;5074464;28;20181;-63
2022/11/28 10:15:38;;;;;;;46.30;25.30;;;8.50;99.90;;;;;;5082534;28;20031;-64
2022/11/28 10:18:09;;;;;;;45.08;26.40;;;8.60;99.90;;;;;;5111121;28;20067;-63
2022/11/28 10:20:40;;;;;;;37.10;21.52;;;8.60;99.90;;;;;;5111769;28;20135;-64
2022/11/28 10:23:10;;;;;;;43.05;25.80;;;8.60;99.90;;;;;;5110243;28;20051;-64
2022/11/28 10:25:42;;;;;;;46.65;31.10;;;8.60;99.90;;;;;;5111585;28;20092;-64
2022/11/28 10:28:28;;;;;;;59.72;40.33;;;8.60;99.90;;;;;;5112210;28;20035;-64
2022/11/28 10:31:05;;;;;;;40.65;26.10;;;8.60;99.90;;;;;;5093791;28;20475;-64
2022/11/28 10:33:39;;;;;;;38.45;22.98;;;8.60;99.90;;;;;;5112123;28;20093;-64
2022/11/28 10:36:05;;;;;;;40.50;24.30;;;8.60;99.90;;;;;;5110549;28;20472;-65
2022/11/28 10:38:35;;;;;;;40.63;22.20;;;8.60;99.90;;;;;;5111519;28;20042;-64
2022/11/28 10:41:17;;;;;;;33.85;21.08;;;8.70;99.90;;;;;;5111378;28;20062;-64
2022/11/28 10:44:06;;;;;;;37.28;22.65;;;8.70;99.90;;;;;;5111972;28;20042;-66
2022/11/28 10:46:46;;;;;;;32.80;21.45;;;8.70;99.90;;;;;;5112555;28;20430;-64
2022/11/28 10:49:56;;;;;;;38.67;21.98;;;8.70;99.90;;;;;;5111638;28;20040;-64
2022/11/28 10:53:00;;;;;;;26.58;17.33;;;8.70;99.90;;;;;;5112377;28;20383;-65
2022/11/28 10:56:10;;;;;;;37.83;21.50;;;8.70;99.90;;;;;;5116295;28;20044;-65
2022/11/28 10:58:56;;;;;;;37.50;22.45;;;8.80;99.90;;;;;;5114567;28;20035;-65
2022/11/28 11:01:22;;;;;;;45.35;25.52;;;8.80;99.90;;;;;;5114854;28;20050;-65
2022/11/28 11:03:48;;;;;;;47.08;28.48;;;8.80;99.90;;;;;;5115845;28;20114;-65
2022/11/28 11:06:14;;;;;;;50.58;27.33;;;8.80;99.90;;;;;;5097141;28;20040;-66
2022/11/28 11:08:40;;;;;;;47.00;29.33;;;8.80;99.90;;;;;;5114861;28;20032;-65
2022/11/28 11:11:18;;;;;;;43.25;25.58;;;8.80;99.90;;;;;;5114567;28;20036;-64
2022/11/28 11:13:59;;;;;;;37.67;23.02;;;8.80;99.90;;;;;;5116007;28;20078;-64
2022/11/28 11:16:25;;;;;;;34.28;20.50;;;8.90;99.90;;;;;;5113879;28;20052;-65
2022/11/28 11:18:53;;;;;;;32.08;20.42;;;8.80;99.90;;;;;;5110294;28;20027;-65
2022/11/28 11:21:26;;;;;;;32.25;18.35;;;8.90;99.90;;;;;;5108558;28;20093;-66
2022/11/28 11:24:14;;;;;;;29.77;18.70;;;8.90;99.90;;;;;;5111635;28;20031;-65
2022/11/28 11:26:43;;;;;;;25.20;16.58;;;8.90;99.90;;;;;;5111637;28;20745;-66
2022/11/28 11:29:30;;;;;;;26.20;16.73;;;8.80;99.90;;;;;;5112163;28;20504;-66
2022/11/28 11:32:02;;;;;;;30.05;18.60;;;8.90;99.90;;;;;;5089666;28;20568;-66
2022/11/28 11:34:33;;;;;;;33.72;19.40;;;8.90;99.90;;;;;;5112116;28;20046;-65
2022/11/28 11:37:36;;;;;;;37.85;20.40;;;8.90;99.90;;;;;;5112196;28;20052;-65
2022/11/28 11:40:27;;;;;;;34.42;20.52;;;8.80;99.90;;;;;;5105251;28;20503;-65
2022/11/28 11:42:58;;;;;;;29.23;19.23;;;8.90;99.90;;;;;;5091072;28;20051;-65
2022/11/28 11:45:26;;;;;;;36.53;20.88;;;8.90;99.90;;;;;;5100148;28;20070;-65
2022/11/28 11:47:52;;;;;;;38.92;21.65;;;8.90;99.90;;;;;;5111019;28;20043;-65
2022/11/28 11:50:21;;;;;;;40.13;20.98;;;8.90;99.90;;;;;;5104348;28;20388;-66
2022/11/28 11:53:09;;;;;;;36.75;21.02;;;8.90;99.90;;;;;;5102928;28;20528;-65
2022/11/28 11:55:53;;;;;;;33.45;18.92;;;8.90;99.90;;;;;;5104197;28;20082;-65
2022/11/28 11:58:23;;;;;;;46.25;23.55;;;8.90;99.90;;;;;;5111304;28;20081;-66
2022/11/28 12:00:53;;;;;;;40.05;21.30;;;8.90;99.90;;;;;;5094413;28;20050;-66
2022/11/28 12:03:40;;;;;;;41.28;24.63;;;8.90;99.90;;;;;;5110658;28;20043;-66
2022/11/28 12:06:20;;;;;;;39.17;21.80;;;8.90;99.90;;;;;;5092207;28;20058;-66
2022/11/28 12:08:49;;;;;;;40.17;23.15;;;8.90;99.90;;;;;;5087284;28;20057;-66
2022/11/28 12:11:23;;;;;;;32.17;20.35;;;8.90;99.90;;;;;;5109954;28;20122;-66
2022/11/28 12:13:50;;;;;;;38.08;23.13;;;8.90;99.90;;;;;;5108925;28;20047;-66
2022/11/28 12:16:55;;;;;;;32.00;21.48;;;8.90;99.90;;;;;;5109207;28;20048;-66
2022/11/28 12:19:42;;;;;;;35.97;22.08;;;8.90;99.90;;;;;;5111826;28;20049;-67
2022/11/28 12:22:19;;;;;;;49.78;25.27;;;8.90;99.90;;;;;;5110048;28;20043;-66
2022/11/28 12:25:09;;;;;;;34.40;20.63;;;9.00;99.90;;;;;;5111142;28;20131;-67
2022/11/28 12:28:10;;;;;;;32.85;20.63;;;9.00;99.90;;;;;;5112533;28;20043;-67
2022/11/28 12:31:00;;;;;;;36.17;20.55;;;9.00;99.90;;;;;;5089905;28;20050;-67
2022/11/28 12:33:56;;;;;;;30.15;19.15;;;9.00;99.90;;;;;;5093376;28;20177;-66
2022/11/28 12:36:35;;;;;;;28.88;18.85;;;9.00;99.90;;;;;;5109659;28;20131;-67
2022/11/28 12:39:39;;;;;;;33.40;20.90;;;9.00;99.90;;;;;;5112397;28;20035;-66
2022/11/28 12:42:27;;;;;;;36.45;21.50;;;9.00;99.90;;;;;;5109967;28;20640;-66
2022/11/28 12:44:57;;;;;;;26.13;17.60;;;9.00;99.90;;;;;;5111455;28;20047;-66
2022/11/28 12:47:32;;;;;;;33.60;20.35;;;9.00;99.90;;;;;;5111826;28;20040;-66
2022/11/28 12:50:19;;;;;;;35.08;19.85;;;9.00;99.90;;;;;;5110084;28;20696;-66
2022/11/28 12:52:44;;;;;;;34.70;19.52;;;9.00;99.90;;;;;;5110988;28;20441;-66
2022/11/28 12:55:24;;;;;;;35.40;21.05;;;9.00;99.90;;;;;;5092821;28;20091;-67
2022/11/28 12:58:09;;;;;;;44.88;23.25;;;9.00;99.90;;;;;;5109916;28;20047;-66
2022/11/28 13:00:53;;;;;;;42.10;21.52;;;9.00;99.90;;;;;;5095911;28;20395;-66
2022/11/28 13:03:39;;;;;;;49.50;25.00;;;9.00;99.90;;;;;;5087282;28;20044;-66
2022/11/28 13:06:23;;;;;;;46.60;24.52;;;9.00;99.90;;;;;;5088776;28;20071;-66